Terminal Aerodrome Forecast
Issued by NWS Brownsville, TX

Home | Current Version | Previous Version | Text Only | Print | Product List | Glossary On
Versions: 1 2 3 4 5 6 7 8 9 10 11 12 13 14 15 16 17 18 19 20
000
FTUS44 KBRO 300500
TAFMFE
TAF
KMFE 300539Z 3006/3106 13010KT P6SM SCT025 BKN250
     FM300900 13005KT P6SM BKN050
      TEMPO 3009/3012 P6SM -SHRA BKN040
     FM301200 13006KT P6SM VCSH OVC050
      TEMPO 3012/3015 P6SM -TSRA OVC040CB
     FM301500 14010KT P6SM VCSH OVC050 PROB30 3015/3021 P6SM -TSRA
      BKN040CB
     FM302100 14010KT P6SM VCSH OVC035
      TEMPO 3021/3024 P6SM -TSRA BKN025CB
     FM310000 13010KT P6SM SCT020 OVC050
     FM310300 14005KT P6SM SCT020 OVC100=

USA.gov is the U.S. government's official web portal to all federal, state and local government web resources and services.